Falcon — WBE7134 — position and weather

sailwx.info

Track history (hours):
 
Tides and Currents Weather Stations Pressure Air Temp Water Temp Dewpoint Dewpoint Depression Visibility Wind Speed Wind Dir Waves Ship Positions

Falcon

Owner: Allied Transportation Company, NORFOLK, VA. More information available from US FCC via Universal Licensing System and Coast Guard Vessel Documentation Center.

Last reported at 2016-May-03 11:29 UTC. Time now 2016-May-03 12:21 UTC.
Position N 40°48' W 073°59'.

Length 37 m; draft 5 m.

Type: Tug. MMSI: 366976720.

Date/timePositionNaut miles runAvg speedWind from/ knotsBaromVisibWave heightAir tempDewpointWater temp
2016-May-03 11:29N 40°48' W 073°59'8 8.3
2016-May-03 10:33N 40°40' W 074°02'5 5.2
2016-May-03 09:33N 40°35' W 074°02'6 5.7
2016-May-03 08:33N 40°30' W 073°57'25 5.9
2016-May-03 04:16N 40°05' W 073°56'5 6.3
2016-May-03 03:32N 40°01' W 073°56'6 6.4
2016-May-03 02:32N 39°54' W 073°57'6 6.4
2016-May-03 01:33N 39°48' W 073°57'6 6.2
2016-May-03 00:33N 39°42' W 073°59'6 6.2
2016-May-02 23:33N 39°37' W 074°02'6 6.3
2016-May-02 22:33N 39°31' W 074°06'7 6.3
2016-May-02 21:31N 39°25' W 074°11'33 6.1
2016-May-02 16:08N 38°55' W 074°24'  
2016-Apr-30 08:33N 34°11' W 076°21'  
2016-Apr-27 20:25N 27°07' W 079°56'8 9.5
2016-Apr-27 19:33N 26°59' W 079°56'9 9.4
2016-Apr-27 18:33N 26°50' W 079°57'5 5.2
2016-Apr-27 17:32N 26°46' W 080°02'  
2016-Apr-25 11:31N 26°46' W 080°03'0 0.0
2016-Apr-25 09:33N 26°46' W 080°03'0 0.0
2016-Apr-25 00:07N 26°46' W 080°03'0 0.7
2016-Apr-24 23:33N 26°46' W 080°03'5 5.4
2016-Apr-24 22:34N 26°51' W 079°60'7 7.3
2016-Apr-24 21:33N 26°58' W 079°59'  
Track history (hours):
 
Tides and Currents Weather Stations Pressure Air Temp Water Temp Dewpoint Dewpoint Depression Visibility Wind Speed Wind Dir Waves Ship Positions

Falcon

Owner: Allied Transportation Company, NORFOLK, VA. More information available from US FCC via Universal Licensing System and Coast Guard Vessel Documentation Center.

Last reported at 2016-May-03 11:29 UTC. Time now 2016-May-03 12:21 UTC.
Position N 40°48' W 073°59'.

Length 37 m; draft 5 m.

Type: Tug. MMSI: 366976720.

Date/timePositionNaut miles runAvg speedWind from/ knotsBaromVisibWave heightAir tempDewpointWater temp
2016-May-03 11:29N 40°48' W 073°59'8 8.3
2016-May-03 10:33N 40°40' W 074°02'5 5.2
2016-May-03 09:33N 40°35' W 074°02'6 5.7
2016-May-03 08:33N 40°30' W 073°57'25 5.9
2016-May-03 04:16N 40°05' W 073°56'5 6.3
2016-May-03 03:32N 40°01' W 073°56'6 6.4
2016-May-03 02:32N 39°54' W 073°57'6 6.4
2016-May-03 01:33N 39°48' W 073°57'6 6.2
2016-May-03 00:33N 39°42' W 073°59'6 6.2
2016-May-02 23:33N 39°37' W 074°02'6 6.3
2016-May-02 22:33N 39°31' W 074°06'7 6.3
2016-May-02 21:31N 39°25' W 074°11'33 6.1
2016-May-02 16:08N 38°55' W 074°24'  
2016-Apr-30 08:33N 34°11' W 076°21'  
2016-Apr-27 20:25N 27°07' W 079°56'8 9.5
2016-Apr-27 19:33N 26°59' W 079°56'9 9.4
2016-Apr-27 18:33N 26°50' W 079°57'5 5.2
2016-Apr-27 17:32N 26°46' W 080°02'  
2016-Apr-25 11:31N 26°46' W 080°03'0 0.0
2016-Apr-25 09:33N 26°46' W 080°03'0 0.0
2016-Apr-25 00:07N 26°46' W 080°03'0 0.7
2016-Apr-24 23:33N 26°46' W 080°03'5 5.4
2016-Apr-24 22:34N 26°51' W 079°60'7 7.3
2016-Apr-24 21:33N 26°58' W 079°59'  

Dump ship's entire track history